East Sidney, New York
Current Conditions -  °F | °C
As of 7:53 AM on Monday 20 Oct 2014 (Local Time) from KBGM Reporting Station
Overcast Overcast  
Wind Chill: 30°   Ceiling: 11000
Heat Index: 34°   Visibility: 10mi
Dew Point: 28°   Wind: 5mph
Humidity: 79%   Direction: 190°S
Pressure: 29.99"   Gusts: NA
Location:  42.3431°N, 75.1366°W
Report Text: KBGM 201153Z 19004KT 10SM OVC110 01/M02 A2999 RMK AO2 SLP170 T00111022 10017 20000 55002
Loading
Personal Weather Stations






























Interactive Weather Map
Tropical Storm Tracking
New forecast layout! Learn more

10-Day Weather Forecast

Advertisements
Track Severe Weather on mobile